Lone Star Executive Airport Houston US
ICAO: KCXO
IATA: CXO
Category: Medium
Scheduled Services: No

Elevation: 245 ft
TransAlt. 18000 ft.

Airport Communications:
HOUSTON APP/DEP:119.7
ASOS:118.325
CLNC DEL:119.55
RDO:122.2
CTAF/UNICOM:122.95

KCXO Zoom In..

If Map Doesn't Load, Click Here

Runways:

(A) RW 01 length 5000 ft width 100 ft
---- / hdg 12

(B) RW 14 length 6000 ft width 150 ft
ILS 108.70 / hdg 140

(C) RW 19 length 5000 ft width 100 ft
---- / hdg 192

(D) RW 32 length 6000 ft width 150 ft
---- / hdg 320

Location; KCXO
Day. 21 / Time. 13.53 Zulu
* Altimeter: 29.99
* Temperature: 26° c. 78.8°f.
* Wind from: 000° Speed 00 kn.
Dewpoint: 26° c.
Visibility: 9 Statute Miles.
Clouds: Clear (automated report).

KCXO 211353Z 00000KT 9SM CLR 26/26 A2999 RMK AO2 SLP151 T02610261


Wind - Calm.

 
 
jpsmedia.com for Web Design worldairports.se 2018   terms of use